sensor_id;sensor_type;location;lat;lon;timestamp;pressure;altitude;pressure_sealevel;temperature;humidity
55685;BME280;41883;49.544;8.646;2023-05-12T00:02:04;100291.81;;;11.89;nan
55685;BME280;41883;49.544;8.646;2023-05-12T00:04:30;100287.34;;;11.90;nan
55685;BME280;41883;49.544;8.646;2023-05-12T00:06:55;100276.06;;;11.88;nan
55685;BME280;41883;49.544;8.646;2023-05-12T00:09:20;100283.19;;;11.87;nan
55685;BME280;41883;49.544;8.646;2023-05-12T00:11:45;100285.03;;;11.87;nan
55685;BME280;41883;49.544;8.646;2023-05-12T00:14:12;100280.66;;;11.86;nan
55685;BME280;41883;49.544;8.646;2023-05-12T00:16:37;100280.66;;;11.86;nan
55685;BME280;41883;49.544;8.646;2023-05-12T00:19:02;100280.81;;;11.84;nan
55685;BME280;41883;49.544;8.646;2023-05-12T00:21:27;100279.19;;;11.83;nan
55685;BME280;41883;49.544;8.646;2023-05-12T00:23:53;100283.66;;;11.83;nan
55685;BME280;41883;49.544;8.646;2023-05-12T00:26:18;100279.19;;;11.83;nan
55685;BME280;41883;49.544;8.646;2023-05-12T00:28:43;100281.97;;;11.82;nan
55685;BME280;41883;49.544;8.646;2023-05-12T00:31:11;100281.16;;;11.81;nan
55685;BME280;41883;49.544;8.646;2023-05-12T00:33:36;100276.69;;;11.82;nan
55685;BME280;41883;49.544;8.646;2023-05-12T00:36:01;100280.19;;;11.82;nan
55685;BME280;41883;49.544;8.646;2023-05-12T00:38:28;100277.53;;;11.82;nan
55685;BME280;41883;49.544;8.646;2023-05-12T00:40:53;100275.03;;;11.81;nan
55685;BME280;41883;49.544;8.646;2023-05-12T00:43:20;100267.09;;;11.81;nan
55685;BME280;41883;49.544;8.646;2023-05-12T00:45:45;100272.25;;;11.82;nan
55685;BME280;41883;49.544;8.646;2023-05-12T00:48:10;100264.78;;;11.86;nan
55685;BME280;41883;49.544;8.646;2023-05-12T00:50:35;100261.81;;;11.89;nan
55685;BME280;41883;49.544;8.646;2023-05-12T00:53:01;100264.31;;;11.90;nan
55685;BME280;41883;49.544;8.646;2023-05-12T00:55:29;100266.81;;;11.92;nan
55685;BME280;41883;49.544;8.646;2023-05-12T00:57:55;100263.47;;;11.90;nan
55685;BME280;41883;49.544;8.646;2023-05-12T01:00:20;100260.16;;;11.88;nan
55685;BME280;41883;49.544;8.646;2023-05-12T01:02:46;100259.34;;;11.87;nan
55685;BME280;41883;49.544;8.646;2023-05-12T01:05:11;100257.53;;;11.88;nan
55685;BME280;41883;49.544;8.646;2023-05-12T01:07:36;100255.69;;;11.88;nan
55685;BME280;41883;49.544;8.646;2023-05-12T01:10:02;100260.00;;;11.89;nan
55685;BME280;41883;49.544;8.646;2023-05-12T01:12:28;100260.16;;;11.88;nan
55685;BME280;41883;49.544;8.646;2023-05-12T01:14:53;100252.53;;;11.85;nan
55685;BME280;41883;49.544;8.646;2023-05-12T01:17:21;100256.81;;;11.86;nan
55685;BME280;41883;49.544;8.646;2023-05-12T01:19:53;100252.34;;;11.86;nan
55685;BME280;41883;49.544;8.646;2023-05-12T01:22:18;100251.69;;;11.84;nan
55685;BME280;41883;49.544;8.646;2023-05-12T01:24:44;100254.19;;;11.86;nan
55685;BME280;41883;49.544;8.646;2023-05-12T01:27:10;100251.53;;;11.86;nan
55685;BME280;41883;49.544;8.646;2023-05-12T01:29:36;100250.84;;;11.84;nan
55685;BME280;41883;49.544;8.646;2023-05-12T01:32:02;100246.72;;;11.81;nan
55685;BME280;41883;49.544;8.646;2023-05-12T01:34:27;100257.50;;;11.80;nan
55685;BME280;41883;49.544;8.646;2023-05-12T01:36:52;100249.38;;;11.81;nan
55685;BME280;41883;49.544;8.646;2023-05-12T01:39:18;100256.16;;;11.84;nan
55685;BME280;41883;49.544;8.646;2023-05-12T01:41:43;100258.66;;;11.85;nan
55685;BME280;41883;49.544;8.646;2023-05-12T01:44:08;100256.97;;;11.84;nan
55685;BME280;41883;49.544;8.646;2023-05-12T01:46:33;100252.69;;;11.83;nan
55685;BME280;41883;49.544;8.646;2023-05-12T01:49:01;100259.31;;;11.79;nan
55685;BME280;41883;49.544;8.646;2023-05-12T01:51:26;100257.00;;;11.76;nan
55685;BME280;41883;49.544;8.646;2023-05-12T01:53:51;100255.16;;;11.77;nan
55685;BME280;41883;49.544;8.646;2023-05-12T01:56:16;100266.59;;;11.77;nan
55685;BME280;41883;49.544;8.646;2023-05-12T01:58:42;100265.94;;;11.75;nan
55685;BME280;41883;49.544;8.646;2023-05-12T02:01:07;100261.63;;;11.74;nan
55685;BME280;41883;49.544;8.646;2023-05-12T02:03:32;100268.91;;;11.72;nan
55685;BME280;41883;49.544;8.646;2023-05-12T02:05:57;100260.97;;;11.72;nan
55685;BME280;41883;49.544;8.646;2023-05-12T02:08:22;100268.09;;;11.72;nan
55685;BME280;41883;49.544;8.646;2023-05-12T02:10:48;100263.47;;;11.74;nan
55685;BME280;41883;49.544;8.646;2023-05-12T02:13:13;100271.56;;;11.72;nan
55685;BME280;41883;49.544;8.646;2023-05-12T02:15:39;100265.44;;;11.72;nan
55685;BME280;41883;49.544;8.646;2023-05-12T02:18:04;100263.59;;;11.72;nan
55685;BME280;41883;49.544;8.646;2023-05-12T02:20:29;100266.25;;;11.72;nan
55685;BME280;41883;49.544;8.646;2023-05-12T02:22:54;100273.03;;;11.75;nan
55685;BME280;41883;49.544;8.646;2023-05-12T02:25:20;100266.78;;;11.76;nan
55685;BME280;41883;49.544;8.646;2023-05-12T02:27:45;100262.44;;;11.75;nan
55685;BME280;41883;49.544;8.646;2023-05-12T02:30:10;100261.97;;;11.71;nan
55685;BME280;41883;49.544;8.646;2023-05-12T02:32:36;100263.28;;;11.67;nan
55685;BME280;41883;49.544;8.646;2023-05-12T02:35:01;100263.44;;;11.65;nan
55685;BME280;41883;49.544;8.646;2023-05-12T02:37:26;100259.16;;;11.64;nan
55685;BME280;41883;49.544;8.646;2023-05-12T02:39:51;100266.59;;;11.61;nan
55685;BME280;41883;49.544;8.646;2023-05-12T02:42:16;100261.47;;;11.59;nan
55685;BME280;41883;49.544;8.646;2023-05-12T02:44:41;100260.66;;;11.59;nan
55685;BME280;41883;49.544;8.646;2023-05-12T02:47:07;100256.31;;;11.58;nan
55685;BME280;41883;49.544;8.646;2023-05-12T02:49:32;100259.16;;;11.56;nan
55685;BME280;41883;49.544;8.646;2023-05-12T02:51:57;100260.31;;;11.54;nan
55685;BME280;41883;49.544;8.646;2023-05-12T02:54:22;100256.81;;;11.53;nan
55685;BME280;41883;49.544;8.646;2023-05-12T02:56:47;100250.69;;;11.53;nan
55685;BME280;41883;49.544;8.646;2023-05-12T02:59:13;100253.34;;;11.53;nan
55685;BME280;41883;49.544;8.646;2023-05-12T03:01:38;100254.16;;;11.53;nan
55685;BME280;41883;49.544;8.646;2023-05-12T03:04:03;100260.13;;;11.55;nan
55685;BME280;41883;49.544;8.646;2023-05-12T03:06:28;100260.31;;;11.54;nan
55685;BME280;41883;49.544;8.646;2023-05-12T03:08:54;100256.66;;;11.55;nan
55685;BME280;41883;49.544;8.646;2023-05-12T03:11:19;100255.84;;;11.54;nan
55685;BME280;41883;49.544;8.646;2023-05-12T03:13:45;100255.66;;;11.56;nan
55685;BME280;41883;49.544;8.646;2023-05-12T03:16:10;100257.31;;;11.57;nan
55685;BME280;41883;49.544;8.646;2023-05-12T03:18:36;100259.97;;;11.57;nan
55685;BME280;41883;49.544;8.646;2023-05-12T03:21:01;100262.63;;;11.57;nan
55685;BME280;41883;49.544;8.646;2023-05-12T03:23:28;100261.81;;;11.56;nan
55685;BME280;41883;49.544;8.646;2023-05-12T03:25:53;100261.97;;;11.55;nan
55685;BME280;41883;49.544;8.646;2023-05-12T03:28:19;100256.00;;;11.53;nan
55685;BME280;41883;49.544;8.646;2023-05-12T03:30:46;100251.84;;;11.50;nan
55685;BME280;41883;49.544;8.646;2023-05-12T03:33:12;100259.13;;;11.48;nan
55685;BME280;41883;49.544;8.646;2023-05-12T03:35:37;100244.41;;;11.45;nan
55685;BME280;41883;49.544;8.646;2023-05-12T03:38:02;100251.53;;;11.45;nan
55685;BME280;41883;49.544;8.646;2023-05-12T03:40:27;100250.03;;;11.42;nan
55685;BME280;41883;49.544;8.646;2023-05-12T03:42:52;100248.38;;;11.41;nan
55685;BME280;41883;49.544;8.646;2023-05-12T03:45:18;100252.50;;;11.44;nan
55685;BME280;41883;49.544;8.646;2023-05-12T03:47:43;100257.78;;;11.44;nan
55685;BME280;41883;49.544;8.646;2023-05-12T03:50:08;100251.69;;;11.43;nan
55685;BME280;41883;49.544;8.646;2023-05-12T03:52:33;100258.81;;;11.43;nan
55685;BME280;41883;49.544;8.646;2023-05-12T03:54:59;100258.13;;;11.41;nan
55685;BME280;41883;49.544;8.646;2023-05-12T03:57:27;100260.63;;;11.42;nan
55685;BME280;41883;49.544;8.646;2023-05-12T03:59:52;100263.94;;;11.44;nan
55685;BME280;41883;49.544;8.646;2023-05-12T04:02:17;100262.94;;;11.45;nan
55685;BME280;41883;49.544;8.646;2023-05-12T04:04:42;100259.13;;;11.48;nan
55685;BME280;41883;49.544;8.646;2023-05-12T04:07:08;100260.63;;;11.51;nan
55685;BME280;41883;49.544;8.646;2023-05-12T04:09:33;100259.47;;;11.53;nan
55685;BME280;41883;49.544;8.646;2023-05-12T04:11:58;100255.66;;;11.56;nan
55685;BME280;41883;49.544;8.646;2023-05-12T04:14:24;100259.97;;;11.57;nan
55685;BME280;41883;49.544;8.646;2023-05-12T04:16:49;100261.47;;;11.59;nan
55685;BME280;41883;49.544;8.646;2023-05-12T04:19:14;100265.59;;;11.62;nan
55685;BME280;41883;49.544;8.646;2023-05-12T04:21:40;100267.25;;;11.63;nan
55685;BME280;41883;49.544;8.646;2023-05-12T04:24:05;100259.47;;;11.61;nan
55685;BME280;41883;49.544;8.646;2023-05-12T04:26:30;100266.44;;;11.62;nan
55685;BME280;41883;49.544;8.646;2023-05-12T04:28:58;100272.53;;;11.63;nan
55685;BME280;41883;49.544;8.646;2023-05-12T04:31:24;100264.44;;;11.64;nan
55685;BME280;41883;49.544;8.646;2023-05-12T04:33:49;100270.09;;;11.61;nan
55685;BME280;41883;49.544;8.646;2023-05-12T04:36:15;100266.28;;;11.64;nan
55685;BME280;41883;49.544;8.646;2023-05-12T04:38:41;100273.72;;;11.68;nan
55685;BME280;41883;49.544;8.646;2023-05-12T04:41:06;100270.59;;;11.73;nan
55685;BME280;41883;49.544;8.646;2023-05-12T04:43:34;100274.53;;;11.77;nan
55685;BME280;41883;49.544;8.646;2023-05-12T04:45:59;100273.06;;;11.83;nan
55685;BME280;41883;49.544;8.646;2023-05-12T04:48:25;100275.38;;;11.86;nan
55685;BME280;41883;49.544;8.646;2023-05-12T04:50:50;100278.38;;;11.91;nan
55685;BME280;41883;49.544;8.646;2023-05-12T04:53:15;100276.72;;;11.98;nan
55685;BME280;41883;49.544;8.646;2023-05-12T04:55:43;100280.19;;;12.07;nan
55685;BME280;41883;49.544;8.646;2023-05-12T04:58:13;100285.81;;;12.12;nan
55685;BME280;41883;49.544;8.646;2023-05-12T05:00:39;100280.16;;;12.15;nan
55685;BME280;41883;49.544;8.646;2023-05-12T05:03:04;100286.81;;;12.19;nan
55685;BME280;41883;49.544;8.646;2023-05-12T05:05:30;100285.28;;;12.25;nan
55685;BME280;41883;49.544;8.646;2023-05-12T05:07:55;100286.63;;;12.29;nan
55685;BME280;41883;49.544;8.646;2023-05-12T05:10:20;100289.06;;;12.39;nan
55685;BME280;41883;49.544;8.646;2023-05-12T05:12:45;100290.41;;;12.43;nan
55685;BME280;41883;49.544;8.646;2023-05-12T05:15:11;100287.91;;;12.49;nan
55685;BME280;41883;49.544;8.646;2023-05-12T05:17:36;100285.72;;;12.53;nan
55685;BME280;41883;49.544;8.646;2023-05-12T05:20:02;100285.88;;;12.60;nan
55685;BME280;41883;49.544;8.646;2023-05-12T05:22:28;100293.16;;;12.66;nan
55685;BME280;41883;49.544;8.646;2023-05-12T05:24:53;100294.16;;;12.65;nan
55685;BME280;41883;49.544;8.646;2023-05-12T05:27:21;100294.44;;;12.70;nan
55685;BME280;41883;49.544;8.646;2023-05-12T05:29:46;100293.63;;;12.78;nan
55685;BME280;41883;49.544;8.646;2023-05-12T05:32:11;100296.38;;;12.84;nan
55685;BME280;41883;49.544;8.646;2023-05-12T05:34:36;100298.72;;;12.87;nan
55685;BME280;41883;49.544;8.646;2023-05-12T05:37:02;100300.53;;;12.87;nan
55685;BME280;41883;49.544;8.646;2023-05-12T05:39:27;100294.59;;;12.85;nan
55685;BME280;41883;49.544;8.646;2023-05-12T05:41:55;100297.53;;;12.90;nan
55685;BME280;41883;49.544;8.646;2023-05-12T05:44:20;100300.81;;;13.00;nan
55685;BME280;41883;49.544;8.646;2023-05-12T05:46:45;100300.44;;;13.11;nan
55685;BME280;41883;49.544;8.646;2023-05-12T05:49:10;100300.38;;;13.20;nan
55685;BME280;41883;49.544;8.646;2023-05-12T05:51:36;100304.34;;;13.24;nan
55685;BME280;41883;49.544;8.646;2023-05-12T05:54:01;100305.69;;;13.28;nan
55685;BME280;41883;49.544;8.646;2023-05-12T05:59:21;100307.47;;;13.35;nan
55685;BME280;41883;49.544;8.646;2023-05-12T06:01:57;100309.16;;;13.28;nan
55685;BME280;41883;49.544;8.646;2023-05-12T06:04:31;100314.47;;;13.28;nan
55685;BME280;41883;49.544;8.646;2023-05-12T06:06:56;100309.59;;;13.40;nan
55685;BME280;41883;49.544;8.646;2023-05-12T06:09:21;100307.22;;;13.45;nan
55685;BME280;41883;49.544;8.646;2023-05-12T06:11:46;100315.59;;;13.34;nan
55685;BME280;41883;49.544;8.646;2023-05-12T06:14:12;100317.03;;;13.45;nan
55685;BME280;41883;49.544;8.646;2023-05-12T06:16:37;100320.88;;;13.42;nan
55685;BME280;41883;49.544;8.646;2023-05-12T06:19:03;100323.34;;;13.44;nan
55685;BME280;41883;49.544;8.646;2023-05-12T06:21:28;100326.34;;;13.41;nan
55685;BME280;41883;49.544;8.646;2023-05-12T06:23:56;100329.91;;;13.56;nan
55685;BME280;41883;49.544;8.646;2023-05-12T06:26:21;100326.63;;;13.54;nan
55685;BME280;41883;49.544;8.646;2023-05-12T06:28:46;100335.78;;;13.43;nan
55685;BME280;41883;49.544;8.646;2023-05-12T06:31:12;100328.66;;;13.44;nan
55685;BME280;41883;49.544;8.646;2023-05-12T06:33:37;100332.78;;;13.46;nan
55685;BME280;41883;49.544;8.646;2023-05-12T06:36:03;100331.50;;;13.42;nan
55685;BME280;41883;49.544;8.646;2023-05-12T06:38:28;100331.06;;;13.30;nan
55685;BME280;41883;49.544;8.646;2023-05-12T06:40:56;100331.56;;;13.26;nan
55685;BME280;41883;49.544;8.646;2023-05-12T06:43:22;100339.34;;;13.27;nan
55685;BME280;41883;49.544;8.646;2023-05-12T06:45:47;100341.69;;;13.30;nan
55685;BME280;41883;49.544;8.646;2023-05-12T06:48:12;100338.97;;;13.38;nan
55685;BME280;41883;49.544;8.646;2023-05-12T06:50:38;100340.66;;;13.31;nan
55685;BME280;41883;49.544;8.646;2023-05-12T06:53:03;100343.81;;;13.27;nan
55685;BME280;41883;49.544;8.646;2023-05-12T06:55:30;100349.00;;;13.28;nan
55685;BME280;41883;49.544;8.646;2023-05-12T06:57:55;100344.19;;;13.15;nan
55685;BME280;41883;49.544;8.646;2023-05-12T07:00:24;100343.50;;;13.30;nan
55685;BME280;41883;49.544;8.646;2023-05-12T07:02:52;100345.66;;;13.26;nan
55685;BME280;41883;49.544;8.646;2023-05-12T07:05:56;100342.34;;;13.24;nan
55685;BME280;41883;49.544;8.646;2023-05-12T07:08:30;100347.09;;;13.37;nan
55685;BME280;41883;49.544;8.646;2023-05-12T07:10:58;100345.53;;;13.51;nan
55685;BME280;41883;49.544;8.646;2023-05-12T07:13:23;100344.88;;;13.49;nan
55685;BME280;41883;49.544;8.646;2023-05-12T07:15:49;100345.97;;;13.63;nan
55685;BME280;41883;49.544;8.646;2023-05-12T07:18:14;100348.91;;;13.68;nan
55685;BME280;41883;49.544;8.646;2023-05-12T07:20:48;100346.56;;;13.73;nan
55685;BME280;41883;49.544;8.646;2023-05-12T07:23:14;100348.69;;;13.77;nan
55685;BME280;41883;49.544;8.646;2023-05-12T07:25:42;100349.22;;;13.73;nan
55685;BME280;41883;49.544;8.646;2023-05-12T07:28:07;100343.72;;;13.74;nan
55685;BME280;41883;49.544;8.646;2023-05-12T07:30:33;100348.59;;;13.71;nan
55685;BME280;41883;49.544;8.646;2023-05-12T07:33:13;100352.47;;;13.60;nan
55685;BME280;41883;49.544;8.646;2023-05-12T07:35:39;100353.41;;;13.67;nan
55685;BME280;41883;49.544;8.646;2023-05-12T07:38:04;100361.03;;;13.70;nan
55685;BME280;41883;49.544;8.646;2023-05-12T07:40:33;100358.97;;;13.80;nan
55685;BME280;41883;49.544;8.646;2023-05-12T07:42:58;100353.44;;;13.90;nan
55685;BME280;41883;49.544;8.646;2023-05-12T07:45:23;100350.34;;;14.01;nan
55685;BME280;41883;49.544;8.646;2023-05-12T07:47:49;100344.41;;;14.14;nan
55685;BME280;41883;49.544;8.646;2023-05-12T07:50:15;100343.78;;;14.12;nan
55685;BME280;41883;49.544;8.646;2023-05-12T07:52:47;100339.41;;;14.34;nan
55685;BME280;41883;49.544;8.646;2023-05-12T07:55:21;100339.75;;;14.54;nan
55685;BME280;41883;49.544;8.646;2023-05-12T07:57:49;100348.41;;;14.71;nan
55685;BME280;41883;49.544;8.646;2023-05-12T08:00:14;100347.19;;;14.89;nan
55685;BME280;41883;49.544;8.646;2023-05-12T08:02:40;100344.78;;;15.08;nan
55685;BME280;41883;49.544;8.646;2023-05-12T08:05:17;100345.59;;;15.24;nan
55685;BME280;41883;49.544;8.646;2023-05-12T08:07:42;100344.66;;;15.32;nan
55685;BME280;41883;49.544;8.646;2023-05-12T08:10:28;100350.16;;;15.30;nan
55685;BME280;41883;49.544;8.646;2023-05-12T08:13:05;100351.09;;;15.22;nan
55685;BME280;41883;49.544;8.646;2023-05-12T08:15:52;100346.81;;;15.06;nan
55685;BME280;41883;49.544;8.646;2023-05-12T08:18:17;100352.50;;;15.03;nan
55685;BME280;41883;49.544;8.646;2023-05-12T08:20:42;100349.75;;;15.12;nan
55685;BME280;41883;49.544;8.646;2023-05-12T08:23:08;100351.88;;;15.16;nan
55685;BME280;41883;49.544;8.646;2023-05-12T08:25:42;100349.25;;;15.23;nan
55685;BME280;41883;49.544;8.646;2023-05-12T08:28:09;100348.13;;;15.32;nan
55685;BME280;41883;49.544;8.646;2023-05-12T08:30:34;100351.53;;;15.41;nan
55685;BME280;41883;49.544;8.646;2023-05-12T08:33:05;100355.66;;;15.43;nan
55685;BME280;41883;49.544;8.646;2023-05-12T08:35:31;100349.44;;;15.36;nan
55685;BME280;41883;49.544;8.646;2023-05-12T08:37:56;100344.28;;;15.35;nan
55685;BME280;41883;49.544;8.646;2023-05-12T08:40:30;100352.09;;;15.36;nan
55685;BME280;41883;49.544;8.646;2023-05-12T08:43:02;100351.16;;;15.44;nan
55685;BME280;41883;49.544;8.646;2023-05-12T08:45:30;100350.88;;;15.39;nan
55685;BME280;41883;49.544;8.646;2023-05-12T08:48:03;100353.88;;;15.50;nan
55685;BME280;41883;49.544;8.646;2023-05-12T08:50:29;100357.91;;;15.61;nan
55685;BME280;41883;49.544;8.646;2023-05-12T08:52:55;100358.53;;;15.63;nan
55685;BME280;41883;49.544;8.646;2023-05-12T08:55:24;100356.88;;;15.62;nan
55685;BME280;41883;49.544;8.646;2023-05-12T08:57:50;100364.81;;;15.56;nan
55685;BME280;41883;49.544;8.646;2023-05-12T09:00:16;100364.38;;;15.52;nan
55685;BME280;41883;49.544;8.646;2023-05-12T09:02:43;100358.88;;;15.39;nan
55685;BME280;41883;49.544;8.646;2023-05-12T09:05:11;100363.22;;;15.40;nan
55685;BME280;41883;49.544;8.646;2023-05-12T09:07:38;100358.31;;;15.43;nan
55685;BME280;41883;49.544;8.646;2023-05-12T09:10:04;100360.75;;;15.60;nan
55685;BME280;41883;49.544;8.646;2023-05-12T09:12:31;100364.75;;;15.85;nan
55685;BME280;41883;49.544;8.646;2023-05-12T09:14:59;100369.19;;;16.00;nan
55685;BME280;41883;49.544;8.646;2023-05-12T09:17:30;100359.91;;;16.17;nan
55685;BME280;41883;49.544;8.646;2023-05-12T09:19:55;100362.56;;;16.17;nan
55685;BME280;41883;49.544;8.646;2023-05-12T09:22:27;100363.06;;;16.27;nan
55685;BME280;41883;49.544;8.646;2023-05-12T09:24:55;100366.91;;;16.46;nan
55685;BME280;41883;49.544;8.646;2023-05-12T09:27:25;100366.13;;;16.52;nan
55685;BME280;41883;49.544;8.646;2023-05-12T09:29:51;100363.50;;;16.31;nan
55685;BME280;41883;49.544;8.646;2023-05-12T09:32:16;100365.41;;;16.16;nan
55685;BME280;41883;49.544;8.646;2023-05-12T09:34:42;100360.06;;;16.09;nan
55685;BME280;41883;49.544;8.646;2023-05-12T09:37:07;100361.31;;;15.91;nan
55685;BME280;41883;49.544;8.646;2023-05-12T09:39:33;100353.63;;;15.82;nan
55685;BME280;41883;49.544;8.646;2023-05-12T09:41:58;100356.22;;;15.75;nan
55685;BME280;41883;49.544;8.646;2023-05-12T09:44:24;100363.97;;;15.70;nan
55685;BME280;41883;49.544;8.646;2023-05-12T09:46:50;100360.50;;;15.55;nan
55685;BME280;41883;49.544;8.646;2023-05-12T09:49:19;100356.03;;;15.40;nan
55685;BME280;41883;49.544;8.646;2023-05-12T09:51:44;100357.59;;;15.35;nan
55685;BME280;41883;49.544;8.646;2023-05-12T09:54:10;100364.34;;;15.31;nan
55685;BME280;41883;49.544;8.646;2023-05-12T09:56:36;100360.63;;;15.32;nan
55685;BME280;41883;49.544;8.646;2023-05-12T09:59:02;100358.88;;;15.39;nan
55685;BME280;41883;49.544;8.646;2023-05-12T10:01:28;100359.13;;;15.44;nan
55685;BME280;41883;49.544;8.646;2023-05-12T10:03:54;100357.28;;;15.59;nan
55685;BME280;41883;49.544;8.646;2023-05-12T10:06:27;100361.47;;;15.68;nan
55685;BME280;41883;49.544;8.646;2023-05-12T10:09:01;100358.28;;;15.95;nan
55685;BME280;41883;49.544;8.646;2023-05-12T10:11:30;100358.63;;;16.13;nan
55685;BME280;41883;49.544;8.646;2023-05-12T10:13:59;100362.34;;;16.40;nan
55685;BME280;41883;49.544;8.646;2023-05-12T10:16:27;100362.25;;;16.55;nan
55685;BME280;41883;49.544;8.646;2023-05-12T10:18:55;100361.31;;;16.41;nan
55685;BME280;41883;49.544;8.646;2023-05-12T10:21:20;100355.00;;;16.49;nan
55685;BME280;41883;49.544;8.646;2023-05-12T10:23:47;100359.75;;;16.53;nan
55685;BME280;41883;49.544;8.646;2023-05-12T10:26:13;100363.66;;;16.79;nan
55685;BME280;41883;49.544;8.646;2023-05-12T10:28:39;100361.81;;;16.80;nan
55685;BME280;41883;49.544;8.646;2023-05-12T10:31:05;100358.59;;;16.91;nan
55685;BME280;41883;49.544;8.646;2023-05-12T10:33:31;100358.88;;;16.74;nan
55685;BME280;41883;49.544;8.646;2023-05-12T10:35:57;100356.19;;;16.74;nan
55685;BME280;41883;49.544;8.646;2023-05-12T10:38:22;100351.84;;;16.67;nan
55685;BME280;41883;49.544;8.646;2023-05-12T10:40:50;100356.91;;;16.55;nan
55685;BME280;41883;49.544;8.646;2023-05-12T10:43:26;100350.34;;;16.29;nan
55685;BME280;41883;49.544;8.646;2023-05-12T10:48:51;100346.44;;;16.04;nan
55685;BME280;41883;49.544;8.646;2023-05-12T10:51:18;100357.69;;;15.99;nan
55685;BME280;41883;49.544;8.646;2023-05-12T10:53:43;100352.09;;;15.94;nan
55685;BME280;41883;49.544;8.646;2023-05-12T10:56:11;100356.94;;;15.84;nan
55685;BME280;41883;49.544;8.646;2023-05-12T10:58:36;100353.63;;;15.82;nan
55685;BME280;41883;49.544;8.646;2023-05-12T11:01:03;100349.88;;;15.98;nan
55685;BME280;41883;49.544;8.646;2023-05-12T11:03:29;100345.03;;;16.08;nan
55685;BME280;41883;49.544;8.646;2023-05-12T11:05:58;100350.28;;;16.23;nan
55685;BME280;41883;49.544;8.646;2023-05-12T11:08:30;100352.44;;;16.34;nan
55685;BME280;41883;49.544;8.646;2023-05-12T11:10:59;100338.91;;;16.70;nan
55685;BME280;41883;49.544;8.646;2023-05-12T11:13:24;100342.00;;;17.09;nan
55685;BME280;41883;49.544;8.646;2023-05-12T11:15:50;100341.09;;;17.36;nan
55685;BME280;41883;49.544;8.646;2023-05-12T11:18:21;100348.75;;;17.46;nan
55685;BME280;41883;49.544;8.646;2023-05-12T11:20:47;100347.38;;;17.77;nan
55685;BME280;41883;49.544;8.646;2023-05-12T11:23:22;100344.75;;;18.37;nan
55685;BME280;41883;49.544;8.646;2023-05-12T11:25:49;100346.97;;;18.86;nan
55685;BME280;41883;49.544;8.646;2023-05-12T11:28:17;100340.38;;;18.82;nan
55685;BME280;41883;49.544;8.646;2023-05-12T11:30:52;100337.03;;;18.94;nan
55685;BME280;41883;49.544;8.646;2023-05-12T11:33:20;100344.94;;;19.65;nan
55685;BME280;41883;49.544;8.646;2023-05-12T11:35:46;100347.00;;;20.02;nan
55685;BME280;41883;49.544;8.646;2023-05-12T11:38:15;100351.88;;;20.11;nan
55685;BME280;41883;49.544;8.646;2023-05-12T11:40:41;100353.28;;;19.89;nan
55685;BME280;41883;49.544;8.646;2023-05-12T11:43:10;100350.00;;;19.48;nan
55685;BME280;41883;49.544;8.646;2023-05-12T11:45:35;100351.31;;;19.33;nan
55685;BME280;41883;49.544;8.646;2023-05-12T11:48:05;100342.53;;;19.12;nan
55685;BME280;41883;49.544;8.646;2023-05-12T11:50:31;100347.94;;;18.99;nan
55685;BME280;41883;49.544;8.646;2023-05-12T11:52:56;100360.56;;;18.65;nan
55685;BME280;41883;49.544;8.646;2023-05-12T11:55:22;100355.44;;;18.30;nan
55685;BME280;41883;49.544;8.646;2023-05-12T11:57:55;100358.34;;;18.29;nan
55685;BME280;41883;49.544;8.646;2023-05-12T12:00:25;100358.56;;;18.34;nan
55685;BME280;41883;49.544;8.646;2023-05-12T12:02:51;100368.03;;;18.50;nan
55685;BME280;41883;49.544;8.646;2023-05-12T12:05:18;100372.56;;;18.42;nan
55685;BME280;41883;49.544;8.646;2023-05-12T12:07:45;100371.94;;;18.20;nan
55685;BME280;41883;49.544;8.646;2023-05-12T12:12:36;100380.09;;;17.79;nan
55685;BME280;41883;49.544;8.646;2023-05-12T12:15:02;100378.88;;;17.81;nan
55685;BME280;41883;49.544;8.646;2023-05-12T12:17:27;100379.31;;;17.92;nan
55685;BME280;41883;49.544;8.646;2023-05-12T12:19:55;100376.88;;;17.90;nan
55685;BME280;41883;49.544;8.646;2023-05-12T12:22:21;100381.78;;;17.93;nan
55685;BME280;41883;49.544;8.646;2023-05-12T12:24:47;100385.69;;;17.84;nan
55685;BME280;41883;49.544;8.646;2023-05-12T12:27:12;100387.91;;;17.74;nan
55685;BME280;41883;49.544;8.646;2023-05-12T12:29:37;100394.06;;;17.74;nan
55685;BME280;41883;49.544;8.646;2023-05-12T12:32:03;100389.25;;;17.43;nan
55685;BME280;41883;49.544;8.646;2023-05-12T12:34:29;100403.63;;;17.35;nan
55685;BME280;41883;49.544;8.646;2023-05-12T12:36:54;100403.09;;;17.12;nan
55685;BME280;41883;49.544;8.646;2023-05-12T12:39:19;100398.59;;;16.84;nan
55685;BME280;41883;49.544;8.646;2023-05-12T12:41:47;100400.06;;;16.87;nan
55685;BME280;41883;49.544;8.646;2023-05-12T12:44:12;100405.00;;;16.90;nan
55685;BME280;41883;49.544;8.646;2023-05-12T12:49:12;100397.59;;;16.85;nan
55685;BME280;41883;49.544;8.646;2023-05-12T12:51:42;100405.25;;;16.95;nan
55685;BME280;41883;49.544;8.646;2023-05-12T12:54:07;100405.16;;;16.82;nan
55685;BME280;41883;49.544;8.646;2023-05-12T12:56:32;100401.88;;;16.80;nan
55685;BME280;41883;49.544;8.646;2023-05-12T13:04:06;100399.50;;;16.42;nan
55685;BME280;41883;49.544;8.646;2023-05-12T13:06:31;100401.44;;;16.26;nan
55685;BME280;41883;49.544;8.646;2023-05-12T13:08:59;100399.31;;;16.43;nan
55685;BME280;41883;49.544;8.646;2023-05-12T13:11:27;100402.03;;;16.50;nan
55685;BME280;41883;49.544;8.646;2023-05-12T13:13:53;100400.09;;;16.65;nan
55685;BME280;41883;49.544;8.646;2023-05-12T13:16:18;100400.47;;;16.84;nan
55685;BME280;41883;49.544;8.646;2023-05-12T13:18:44;100407.88;;;16.88;nan
55685;BME280;41883;49.544;8.646;2023-05-12T13:21:09;100407.22;;;17.14;nan
55685;BME280;41883;49.544;8.646;2023-05-12T13:23:35;100398.88;;;17.31;nan